Time;durP1;ratioP1;P1;durP2;ratioP2;P2;SDS_P1;SDS_P2;PMS_P1;PMS_P2;Temp;Humidity;BMP_temperature;BMP_pressure;BME280_temperature;BME280_humidity;BME280_pressure;Samples;Min_cycle;Max_cycle;Signal;HPM_P1;HPM_P2
2021/04/13 00:02:20;;;;;;;6.90;6.30;;;6.90;38.40;;;;;;10488253;28;20319;-73
2021/04/13 00:07:24;;;;;;;6.80;6.20;;;7.00;38.40;;;;;;10489814;28;20216;-73
2021/04/13 00:12:31;;;;;;;7.13;6.53;;;7.10;38.50;;;;;;10492797;28;20255;-73
2021/04/13 00:17:33;;;;;;;7.20;6.60;;;7.20;38.60;;;;;;10490479;28;20240;-72
2021/04/13 00:22:38;;;;;;;7.53;6.93;;;7.20;38.40;;;;;;10487998;28;20234;-72
2021/04/13 00:27:42;;;;;;;6.97;6.37;;;7.30;38.30;;;;;;10489881;28;20764;-72
2021/04/13 00:32:50;;;;;;;6.93;6.33;;;7.30;38.20;;;;;;10488738;28;20346;-72
2021/04/13 00:38:09;;;;;;;7.23;6.57;;;7.30;38.60;;;;;;10473841;22;20289;-70
2021/04/13 00:43:14;;;;;;;6.37;5.87;;;7.30;37.50;;;;;;10490996;28;20649;-70
2021/04/13 00:48:24;;;;;;;6.40;5.90;;;7.20;37.70;;;;;;10456324;28;20604;-70
2021/04/13 00:53:30;;;;;;;6.47;5.97;;;7.10;38.20;;;;;;10448943;28;20312;-70
2021/04/13 00:58:38;;;;;;;6.70;6.13;;;7.00;38.20;;;;;;10449119;28;20649;-70
2021/04/13 01:03:48;;;;;;;6.60;6.10;;;7.00;38.40;;;;;;10446498;28;20252;-70
2021/04/13 01:09:06;;;;;;;6.83;6.23;;;6.90;38.30;;;;;;10448573;28;20245;-71
2021/04/13 01:14:10;;;;;;;7.00;6.27;;;6.80;38.30;;;;;;10441847;28;20232;-70
2021/04/13 01:19:26;;;;;;;6.93;6.00;;;6.70;38.20;;;;;;10446294;28;20768;-70
2021/04/13 01:24:35;;;;;;;6.23;5.73;;;6.60;38.10;;;;;;10442819;28;20332;-70
2021/04/13 01:29:41;;;;;;;6.53;6.00;;;6.60;38.10;;;;;;10444006;28;20242;-70
2021/04/13 01:35:02;;;;;;;7.40;6.50;;;6.60;38.10;;;;;;10447693;28;20693;-71
2021/04/13 01:40:17;;;;;;;6.67;6.07;;;6.60;38.80;;;;;;10448538;28;20244;-70
2021/04/13 01:45:23;;;;;;;7.33;6.63;;;6.60;38.10;;;;;;10440856;28;20660;-70
2021/04/13 01:50:28;;;;;;;6.83;6.13;;;6.50;38.10;;;;;;10446371;28;20307;-70
2021/04/13 01:55:33;;;;;;;7.53;6.93;;;6.60;38.20;;;;;;10441677;28;20220;-70
2021/04/13 02:00:45;;;;;;;7.17;6.57;;;6.50;38.00;;;;;;10453045;28;20312;-70
2021/04/13 02:05:54;;;;;;;7.47;6.83;;;6.50;38.80;;;;;;10453214;28;20308;-70
2021/04/13 02:11:02;;;;;;;7.40;6.80;;;6.60;38.30;;;;;;10454784;28;20217;-71
2021/04/13 02:16:09;;;;;;;7.13;6.53;;;6.50;38.20;;;;;;10450865;28;20313;-70
2021/04/13 02:21:28;;;;;;;7.10;6.50;;;6.40;38.60;;;;;;10457188;28;20217;-71
2021/04/13 02:26:31;;;;;;;7.03;6.50;;;6.30;38.30;;;;;;10461891;28;20308;-70
2021/04/13 02:31:47;;;;;;;7.87;7.07;;;6.30;38.40;;;;;;10454505;28;20252;-70
2021/04/13 02:36:52;;;;;;;7.57;6.87;;;6.20;38.60;;;;;;10452025;28;20236;-70
2021/04/13 02:42:00;;;;;;;8.40;7.60;;;6.20;38.70;;;;;;10451624;28;20323;-69
2021/04/13 02:47:08;;;;;;;7.90;7.20;;;6.20;38.80;;;;;;10453756;28;20681;-69
2021/04/13 02:52:16;;;;;;;8.03;7.33;;;6.20;39.30;;;;;;10455923;28;20750;-70
2021/04/13 02:57:22;;;;;;;7.47;6.87;;;6.30;39.30;;;;;;10441832;28;20237;-70
2021/04/13 03:02:32;;;;;;;7.40;6.80;;;6.20;39.20;;;;;;10452031;28;20320;-69
2021/04/13 03:07:39;;;;;;;8.20;7.40;;;6.20;39.70;;;;;;10452941;28;20317;-70
2021/04/13 03:12:44;;;;;;;7.13;6.50;;;6.20;39.50;;;;;;10453486;28;20319;-69
2021/04/13 03:17:51;;;;;;;8.30;7.50;;;6.30;39.30;;;;;;10451439;28;20225;-70
2021/04/13 03:22:57;;;;;;;8.67;7.87;;;6.40;39.50;;;;;;10449575;28;20225;-70
2021/04/13 03:28:01;;;;;;;8.30;7.60;;;6.40;39.00;;;;;;10446722;28;20229;-70
2021/04/13 03:33:10;;;;;;;8.90;8.10;;;6.40;38.80;;;;;;10450779;28;20756;-69
2021/04/13 03:38:16;;;;;;;7.80;7.10;;;6.50;39.40;;;;;;10450801;28;20664;-69
2021/04/13 03:43:24;;;;;;;10.77;8.73;;;6.50;39.30;;;;;;10447519;28;20225;-69
2021/04/13 03:48:29;;;;;;;9.10;8.20;;;6.50;39.40;;;;;;10453002;28;20843;-69
2021/04/13 03:53:36;;;;;;;9.83;8.83;;;6.50;39.10;;;;;;10450545;28;20282;-70
2021/04/13 03:58:40;;;;;;;9.13;8.33;;;6.60;39.30;;;;;;10450794;28;20339;-69
2021/04/13 04:03:45;;;;;;;9.20;8.30;;;6.60;39.00;;;;;;10448028;28;20307;-69
2021/04/13 04:08:49;;;;;;;9.73;8.93;;;6.60;38.80;;;;;;10450932;28;20316;-69
2021/04/13 04:13:52;;;;;;;11.33;10.33;;;6.60;38.70;;;;;;10448852;28;20225;-69
2021/04/13 04:18:56;;;;;;;9.73;8.93;;;6.60;38.90;;;;;;10447663;28;20279;-69
2021/04/13 04:24:03;;;;;;;10.73;9.70;;;6.60;39.00;;;;;;10450628;28;20221;-69
2021/04/13 04:29:16;;;;;;;10.23;9.33;;;6.60;39.20;;;;;;10447154;28;20279;-69
2021/04/13 04:34:51;;;;;;;11.67;10.57;;;6.60;39.60;;;;;;10440091;28;20315;-69
2021/04/13 04:40:17;;;;;;;9.13;8.37;;;6.60;39.80;;;;;;10447178;28;20315;-69
2021/04/13 04:45:31;;;;;;;11.90;10.80;;;6.60;39.70;;;;;;10443159;28;20252;-69
2021/04/13 04:50:34;;;;;;;12.17;11.07;;;6.60;38.90;;;;;;10449739;28;20735;-69
2021/04/13 04:55:37;;;;;;;10.10;9.20;;;6.70;38.80;;;;;;10448821;28;20640;-69
2021/04/13 05:00:39;;;;;;;10.40;9.50;;;6.70;38.90;;;;;;10450155;28;20319;-69
2021/04/13 05:05:41;;;;;;;8.73;7.93;;;6.80;38.80;;;;;;10449497;28;20332;-70
2021/04/13 05:10:44;;;;;;;12.13;10.97;;;6.80;38.60;;;;;;10444201;28;20320;-70
2021/04/13 05:15:47;;;;;;;11.80;10.80;;;6.90;38.80;;;;;;10446323;28;20256;-69
2021/04/13 05:20:49;;;;;;;11.67;10.67;;;6.90;38.60;;;;;;10448201;28;20333;-69
2021/04/13 05:25:52;;;;;;;12.23;11.13;;;6.90;38.40;;;;;;10446662;28;20233;-69
2021/04/13 05:30:54;;;;;;;12.17;11.07;;;6.90;38.60;;;;;;10446750;28;20221;-69
2021/04/13 05:35:58;;;;;;;13.30;12.07;;;6.90;38.30;;;;;;10440184;28;20294;-69
2021/04/13 05:41:01;;;;;;;13.57;12.37;;;6.90;38.30;;;;;;10445570;28;20316;-69
2021/04/13 05:46:04;;;;;;;14.40;13.10;;;6.80;38.30;;;;;;10442942;28;20672;-69
2021/04/13 05:51:06;;;;;;;13.37;12.13;;;6.80;38.30;;;;;;10444984;28;20227;-69
2021/04/13 05:56:13;;;;;;;13.77;12.40;;;6.80;38.60;;;;;;10450648;28;20264;-69
2021/04/13 06:01:19;;;;;;;14.33;12.93;;;6.70;39.30;;;;;;10445785;28;20224;-70
2021/04/13 06:06:21;;;;;;;13.43;12.13;;;6.70;39.00;;;;;;10446042;28;20240;-69
2021/04/13 06:11:28;;;;;;;13.73;12.40;;;6.70;38.80;;;;;;10449973;28;20232;-70
2021/04/13 06:16:34;;;;;;;14.07;12.73;;;6.70;39.10;;;;;;10445475;28;20321;-66
2021/04/13 06:21:38;;;;;;;12.27;11.17;;;6.70;38.80;;;;;;10447020;28;20318;-66
2021/04/13 06:26:42;;;;;;;12.63;11.43;;;6.80;38.90;;;;;;10445049;28;20240;-66
2021/04/13 06:31:46;;;;;;;14.07;12.67;;;6.80;39.00;;;;;;10446155;28;20713;-66
2021/04/13 06:36:48;;;;;;;12.20;11.00;;;6.90;38.90;;;;;;10452389;22;20235;-72
2021/04/13 06:42:23;;;;;;;12.23;11.13;;;6.90;38.70;;;;;;10513952;28;20303;-72
2021/04/13 06:48:02;;;;;;;12.70;11.40;;;6.90;39.80;;;;;;10483380;28;20220;-72
2021/04/13 06:53:24;;;;;;;12.03;10.83;;;7.00;39.20;;;;;;10492303;28;20313;-73
2021/04/13 06:58:39;;;;;;;11.43;10.33;;;7.00;39.60;;;;;;10488187;28;20235;-72
2021/04/13 07:03:50;;;;;;;11.13;10.03;;;7.00;39.20;;;;;;10503118;28;20255;-72
2021/04/13 07:08:59;;;;;;;10.83;9.73;;;7.10;39.50;;;;;;10495997;28;20312;-72
2021/04/13 07:14:05;;;;;;;9.30;8.43;;;7.10;39.00;;;;;;10492677;28;20248;-72
2021/04/13 07:19:15;;;;;;;8.43;7.60;;;7.20;38.60;;;;;;10489145;28;20230;-72
2021/04/13 07:24:23;;;;;;;8.33;7.53;;;7.20;38.90;;;;;;10488717;28;20224;-72
2021/04/13 07:29:31;;;;;;;7.63;6.93;;;7.30;38.70;;;;;;10489168;28;20746;-72
2021/04/13 07:34:40;;;;;;;7.43;6.63;;;7.30;38.60;;;;;;10492204;28;20316;-72
2021/04/13 07:39:46;;;;;;;7.30;6.70;;;7.30;38.70;;;;;;10490387;28;20255;-72
2021/04/13 07:45:09;;;;;;;7.20;6.57;;;7.40;38.80;;;;;;10487974;28;20307;-72
2021/04/13 07:50:15;;;;;;;6.73;6.13;;;7.40;38.80;;;;;;10487501;28;20227;-72
2021/04/13 07:55:21;;;;;;;6.33;5.83;;;7.50;38.80;;;;;;10488840;28;20315;-72
2021/04/13 08:00:26;;;;;;;6.90;6.30;;;7.60;39.10;;;;;;10481404;28;20224;-72
2021/04/13 08:05:39;;;;;;;6.40;5.87;;;7.70;38.30;;;;;;10485442;28;20232;-72
2021/04/13 08:10:43;;;;;;;6.33;5.83;;;7.90;38.50;;;;;;10490006;28;20259;-72
2021/04/13 08:15:51;;;;;;;6.60;6.00;;;8.00;38.40;;;;;;10489669;28;20642;-72
2021/04/13 08:20:57;;;;;;;6.53;5.93;;;8.20;38.10;;;;;;10489915;28;20232;-72
2021/04/13 08:26:28;;;;;;;5.93;5.43;;;8.30;37.70;;;;;;10488058;28;20251;-72
2021/04/13 08:37:06;;;;;;;6.10;5.60;;;8.60;37.40;;;;;;10483834;28;20242;-72
2021/04/13 08:42:30;;;;;;;4.73;4.33;;;8.60;37.00;;;;;;10485653;28;20695;-71
2021/04/13 08:47:39;;;;;;;5.57;5.07;;;8.80;37.40;;;;;;10483896;28;20274;-72
2021/04/13 08:52:44;;;;;;;5.00;4.60;;;9.00;37.80;;;;;;10490838;28;20232;-72
2021/04/13 08:57:59;;;;;;;5.13;4.63;;;9.20;37.30;;;;;;10482669;28;20240;-72
2021/04/13 09:03:04;;;;;;;5.00;4.60;;;9.30;37.40;;;;;;10487595;28;20212;-73
2021/04/13 09:08:28;;;;;;;5.30;4.90;;;9.40;36.80;;;;;;10487660;28;20664;-72
2021/04/13 09:13:34;;;;;;;5.07;4.67;;;9.50;35.50;;;;;;10486846;28;20636;-72
2021/04/13 09:18:50;;;;;;;4.87;4.47;;;9.60;36.30;;;;;;10483621;28;20320;-72
2021/04/13 09:23:58;;;;;;;5.03;4.53;;;9.70;35.80;;;;;;10486470;28;20734;-72
2021/04/13 09:29:01;;;;;;;4.80;4.40;;;9.70;35.80;;;;;;10476908;28;20311;-72
2021/04/13 09:34:09;;;;;;;5.07;4.67;;;9.80;35.80;;;;;;10481753;28;20307;-72
2021/04/13 09:39:31;;;;;;;5.00;4.47;;;9.80;35.10;;;;;;10485194;28;20783;-73
2021/04/13 09:44:45;;;;;;;4.67;4.27;;;9.80;34.70;;;;;;10478343;28;20224;-72
2021/04/13 09:49:54;;;;;;;5.47;4.97;;;9.80;34.60;;;;;;10474553;28;20228;-71
2021/04/13 09:55:05;;;;;;;5.20;4.80;;;9.80;35.50;;;;;;10479766;28;20253;-72
2021/04/13 10:00:37;;;;;;;5.17;4.67;;;9.90;34.70;;;;;;10480295;28;20255;-72
2021/04/13 10:05:44;;;;;;;5.30;4.80;;;10.10;34.00;;;;;;10473503;28;20224;-72
2021/04/13 10:11:02;;;;;;;5.30;4.90;;;10.20;34.30;;;;;;10471699;28;20235;-72
2021/04/13 10:16:07;;;;;;;4.73;4.40;;;10.30;33.70;;;;;;10479575;28;20307;-72
2021/04/13 10:21:20;;;;;;;5.20;4.80;;;10.40;34.00;;;;;;10486432;28;20736;-72
2021/04/13 10:27:01;;;;;;;6.27;4.60;;;10.40;33.10;;;;;;10482251;28;20319;-72
2021/04/13 10:32:41;;;;;;;5.00;4.50;;;10.40;32.40;;;;;;10487937;28;20228;-72
2021/04/13 10:38:27;;;;;;;5.23;4.50;;;10.40;31.00;;;;;;10485617;28;20246;-71
2021/04/13 10:44:19;;;;;;;4.10;3.80;;;10.30;32.00;;;;;;10482535;28;20277;-72
2021/04/13 10:49:51;;;;;;;3.80;3.50;;;10.20;31.60;;;;;;10491323;28;20251;-72
2021/04/13 10:55:41;;;;;;;4.80;4.30;;;10.20;32.00;;;;;;10487016;28;20311;-72
2021/04/13 11:01:11;;;;;;;5.60;5.07;;;10.30;32.20;;;;;;10490396;28;20438;-71
2021/04/13 11:06:51;;;;;;;5.00;4.40;;;10.30;31.30;;;;;;10452905;28;20255;-72
2021/04/13 11:12:46;;;;;;;4.50;4.10;;;10.10;31.80;;;;;;10486016;28;20766;-71
2021/04/13 11:17:58;;;;;;;3.40;3.10;;;9.80;33.00;;;;;;10484611;28;20319;-72
2021/04/13 11:23:51;;;;;;;2.83;2.63;;;9.60;32.90;;;;;;10486932;28;20252;-71
2021/04/13 11:29:35;;;;;;;3.00;2.70;;;9.50;32.50;;;;;;10354665;28;20878;-71
2021/04/13 11:34:53;;;;;;;3.87;3.57;;;9.60;32.80;;;;;;10476019;28;20246;-71
2021/04/13 11:40:11;;;;;;;3.63;3.40;;;9.70;32.70;;;;;;10488875;28;20315;-71
2021/04/13 11:45:29;;;;;;;4.40;4.00;;;9.80;32.10;;;;;;10484740;28;20299;-71
2021/04/13 11:50:37;;;;;;;4.60;4.20;;;10.00;31.50;;;;;;10484487;28;20285;-71
2021/04/13 11:55:45;;;;;;;4.60;4.30;;;10.20;32.50;;;;;;10491350;28;20314;-71
2021/04/13 12:00:48;;;;;;;3.80;3.50;;;10.40;31.80;;;;;;10487306;28;20259;-71
2021/04/13 12:05:53;;;;;;;4.10;3.53;;;10.50;32.00;;;;;;10489529;28;20273;-71
2021/04/13 12:10:58;;;;;;;4.20;3.90;;;10.60;31.20;;;;;;10492833;28;20311;-71
2021/04/13 12:16:01;;;;;;;4.30;4.00;;;10.70;31.60;;;;;;10476947;28;20342;-71
2021/04/13 12:21:36;;;;;;;4.20;3.90;;;10.80;31.50;;;;;;10483449;28;20323;-71
2021/04/13 12:26:43;;;;;;;4.10;3.80;;;11.00;29.00;;;;;;10478860;28;20638;-71
2021/04/13 12:32:19;;;;;;;3.90;3.60;;;11.10;30.30;;;;;;10480976;28;20251;-71
2021/04/13 12:37:37;;;;;;;4.10;3.80;;;11.20;27.60;;;;;;10488651;28;20232;-71
2021/04/13 12:42:46;;;;;;;4.33;3.93;;;11.20;28.50;;;;;;10493892;28;20256;-71
2021/04/13 12:47:49;;;;;;;4.03;3.73;;;11.30;28.80;;;;;;10504208;28;20320;-72
2021/04/13 12:52:52;;;;;;;4.17;3.87;;;11.40;29.70;;;;;;10506146;28;20216;-72
2021/04/13 12:58:03;;;;;;;4.30;4.00;;;11.50;30.20;;;;;;10508267;28;20277;-71
2021/04/13 13:03:30;;;;;;;4.43;4.03;;;11.60;29.20;;;;;;10496724;28;20256;-71
2021/04/13 13:08:32;;;;;;;4.20;3.90;;;11.60;27.60;;;;;;10488741;28;20259;-71
2021/04/13 13:13:37;;;;;;;4.80;4.50;;;11.50;29.00;;;;;;10486314;28;20719;-71
2021/04/13 13:18:45;;;;;;;4.00;3.70;;;11.40;28.40;;;;;;10486007;28;20518;-71
2021/04/13 13:23:50;;;;;;;3.83;3.53;;;11.10;28.50;;;;;;10486310;28;20224;-72
2021/04/13 13:28:52;;;;;;;3.97;3.63;;;11.00;28.80;;;;;;10478411;28;20239;-71
2021/04/13 13:33:57;;;;;;;3.93;3.63;;;10.90;28.90;;;;;;10488739;28;20299;-71
2021/04/13 13:39:03;;;;;;;3.97;3.63;;;10.90;28.90;;;;;;10479294;28;20702;-71
2021/04/13 13:44:20;;;;;;;5.20;4.80;;;11.00;29.00;;;;;;10500957;28;20256;-71
2021/04/13 13:49:29;;;;;;;5.63;5.13;;;11.10;29.60;;;;;;10495162;28;20232;-71
2021/04/13 13:54:33;;;;;;;5.47;4.97;;;11.20;28.80;;;;;;10491104;28;20308;-71
2021/04/13 13:59:46;;;;;;;5.20;4.80;;;11.20;29.20;;;;;;10494426;28;20316;-71
2021/04/13 14:04:49;;;;;;;5.30;4.90;;;11.30;28.30;;;;;;10493025;28;20756;-71
2021/04/13 14:10:24;;;;;;;5.27;4.87;;;11.30;29.20;;;;;;10492856;28;20228;-71
2021/04/13 14:15:32;;;;;;;4.90;4.50;;;11.40;28.50;;;;;;10501201;28;20735;-71
2021/04/13 14:21:17;;;;;;;4.50;4.20;;;11.40;28.30;;;;;;10491803;28;20670;-71
2021/04/13 14:26:30;;;;;;;4.47;4.17;;;11.40;28.00;;;;;;10484570;28;20247;-71
2021/04/13 14:31:33;;;;;;;4.37;4.07;;;11.40;27.30;;;;;;10493407;28;20248;-71
2021/04/13 14:36:36;;;;;;;4.40;3.60;;;11.30;28.60;;;;;;10496973;28;20232;-71
2021/04/13 14:41:39;;;;;;;4.27;3.93;;;11.30;28.40;;;;;;10502258;28;20251;-71
2021/04/13 14:46:41;;;;;;;4.63;4.30;;;11.30;29.10;;;;;;10493384;28;20598;-72
2021/04/13 14:51:46;;;;;;;4.20;3.90;;;11.20;29.10;;;;;;10491512;28;20307;-71
2021/04/13 14:56:50;;;;;;;4.83;4.40;;;11.20;29.10;;;;;;10502222;28;20319;-72
2021/04/13 15:02:12;;;;;;;5.03;4.67;;;11.10;27.90;;;;;;10500491;28;20596;-71
2021/04/13 15:07:17;;;;;;;4.87;4.47;;;10.80;28.40;;;;;;10497371;28;20761;-71
2021/04/13 15:12:19;;;;;;;4.60;4.20;;;10.60;28.70;;;;;;10487672;28;20228;-72
2021/04/13 15:17:26;;;;;;;4.00;3.70;;;10.60;28.70;;;;;;10491089;28;20254;-71
2021/04/13 15:22:31;;;;;;;3.90;3.60;;;10.60;28.50;;;;;;10504474;28;20754;-71
2021/04/13 15:27:35;;;;;;;3.60;3.40;;;10.70;28.80;;;;;;10509178;28;20240;-71
2021/04/13 15:32:38;;;;;;;3.83;3.57;;;10.80;28.40;;;;;;10514091;28;20224;-71
2021/04/13 15:37:47;;;;;;;3.40;3.13;;;10.90;28.90;;;;;;10503006;28;20243;-71
2021/04/13 15:42:55;;;;;;;3.00;2.80;;;11.00;27.50;;;;;;10496782;28;20248;-71
2021/04/13 15:48:06;;;;;;;3.10;2.90;;;11.10;27.10;;;;;;10487996;28;20711;-71
2021/04/13 15:53:09;;;;;;;3.20;2.90;;;11.20;27.40;;;;;;10492863;28;20242;-71
2021/04/13 15:58:11;;;;;;;3.33;3.13;;;11.20;27.40;;;;;;10491819;28;20615;-71
2021/04/13 16:03:30;;;;;;;3.00;2.80;;;11.30;27.70;;;;;;10499718;28;20224;-71
2021/04/13 16:08:33;;;;;;;3.80;3.50;;;11.30;27.80;;;;;;10492655;28;20255;-71
2021/04/13 16:13:36;;;;;;;3.00;2.80;;;11.40;27.90;;;;;;10488947;28;20255;-71
2021/04/13 16:18:38;;;;;;;3.27;3.07;;;11.40;27.10;;;;;;10491233;28;20252;-71
2021/04/13 16:23:42;;;;;;;3.20;2.80;;;11.40;27.20;;;;;;10493437;28;20311;-71
2021/04/13 16:28:45;;;;;;;3.33;3.03;;;11.40;26.80;;;;;;10488154;28;20264;-71
2021/04/13 16:33:47;;;;;;;2.93;2.73;;;11.30;26.80;;;;;;10490403;28;20650;-71
2021/04/13 16:38:53;;;;;;;3.30;3.00;;;11.30;27.00;;;;;;10489236;28;20232;-72
2021/04/13 16:43:57;;;;;;;3.67;2.90;;;11.30;27.20;;;;;;10488313;28;20220;-71
2021/04/13 16:49:04;;;;;;;3.50;2.53;;;11.30;27.30;;;;;;10488454;28;20311;-72
2021/04/13 16:54:08;;;;;;;2.83;2.60;;;11.30;26.20;;;;;;10490151;28;20736;-71
2021/04/13 16:59:12;;;;;;;3.33;3.13;;;11.30;27.10;;;;;;10487243;28;20224;-72
2021/04/13 17:04:18;;;;;;;3.23;2.93;;;11.20;27.30;;;;;;10494477;28;20319;-72
2021/04/13 17:09:26;;;;;;;3.87;3.53;;;11.20;27.30;;;;;;10509803;28;20324;-72
2021/04/13 17:14:34;;;;;;;3.80;3.37;;;11.20;27.40;;;;;;10500036;28;20307;-72
2021/04/13 17:19:39;;;;;;;3.27;3.07;;;11.10;27.30;;;;;;10500196;28;20319;-72
2021/04/13 17:25:06;;;;;;;3.10;2.90;;;11.00;27.40;;;;;;10504284;28;20224;-72
2021/04/13 17:30:11;;;;;;;3.23;3.03;;;10.90;27.40;;;;;;10488365;28;20308;-72
2021/04/13 17:35:14;;;;;;;3.30;3.00;;;10.90;27.60;;;;;;10481584;28;20323;-72
2021/04/13 17:40:21;;;;;;;3.00;2.80;;;10.80;27.90;;;;;;10479724;28;20307;-72
2021/04/13 17:45:24;;;;;;;2.97;2.77;;;10.70;27.80;;;;;;10473800;28;20227;-72
2021/04/13 17:50:30;;;;;;;3.43;3.10;;;10.70;28.20;;;;;;10479195;28;20308;-72
2021/04/13 17:55:37;;;;;;;2.97;2.77;;;10.70;28.00;;;;;;10483701;28;20700;-71
2021/04/13 18:00:39;;;;;;;3.37;3.10;;;10.70;28.20;;;;;;10486560;28;21172;-72
2021/04/13 18:05:49;;;;;;;3.47;3.17;;;10.70;28.70;;;;;;10502075;28;20259;-71
2021/04/13 18:10:56;;;;;;;5.90;4.90;;;10.60;28.50;;;;;;10511947;28;20355;-72
2021/04/13 18:16:04;;;;;;;6.47;5.87;;;10.60;28.50;;;;;;10490107;28;20761;-72
2021/04/13 18:21:10;;;;;;;5.80;5.30;;;10.60;28.30;;;;;;10489009;28;21519;-72
2021/04/13 18:26:19;;;;;;;6.67;6.07;;;10.60;28.00;;;;;;10506439;28;20341;-72
2021/04/13 18:31:31;;;;;;;5.50;5.00;;;10.50;28.20;;;;;;10510062;28;20318;-72
2021/04/13 18:36:39;;;;;;;3.37;3.07;;;10.40;28.30;;;;;;10500384;28;20272;-71
2021/04/13 18:41:45;;;;;;;2.80;2.60;;;10.30;28.50;;;;;;10517171;28;20223;-71
2021/04/13 18:46:51;;;;;;;3.07;2.87;;;10.20;28.40;;;;;;10500938;28;20225;-71
2021/04/13 18:52:01;;;;;;;4.80;3.57;;;10.10;28.40;;;;;;10510976;28;20233;-72
2021/04/13 18:57:08;;;;;;;5.13;4.73;;;10.00;28.30;;;;;;10514545;28;20383;-72
2021/04/13 19:02:16;;;;;;;4.30;3.50;;;9.90;29.00;;;;;;10513867;28;20228;-72
2021/04/13 19:07:25;;;;;;;3.50;3.20;;;9.80;28.90;;;;;;10509381;28;20314;-73
2021/04/13 19:12:32;;;;;;;3.47;2.97;;;9.70;29.00;;;;;;10498170;28;20246;-73
2021/04/13 19:17:39;;;;;;;3.57;3.27;;;9.60;29.10;;;;;;10489091;28;20299;-72
2021/04/13 19:22:48;;;;;;;2.90;2.70;;;9.70;29.30;;;;;;10494453;28;20277;-71
2021/04/13 19:28:06;;;;;;;2.93;2.47;;;9.60;29.50;;;;;;10491035;28;20259;-71
2021/04/13 19:33:17;;;;;;;3.30;3.00;;;9.50;29.20;;;;;;10505398;28;20699;-71
2021/04/13 19:38:28;;;;;;;4.30;3.90;;;9.50;29.50;;;;;;10495783;28;20235;-72
2021/04/13 19:43:35;;;;;;;4.57;4.03;;;9.40;29.20;;;;;;10508134;28;20271;-72
2021/04/13 19:48:43;;;;;;;3.50;3.20;;;9.40;28.70;;;;;;10510750;28;20319;-72
2021/04/13 19:53:49;;;;;;;4.10;3.77;;;9.30;28.60;;;;;;10499287;28;20228;-70
2021/04/13 19:58:54;;;;;;;3.37;3.07;;;9.30;28.60;;;;;;10499052;28;20310;-71
2021/04/13 20:04:01;;;;;;;3.70;3.40;;;9.20;28.50;;;;;;10515167;28;20251;-71
2021/04/13 20:09:06;;;;;;;3.27;2.97;;;9.10;29.30;;;;;;10509738;28;20219;-72
2021/04/13 20:14:21;;;;;;;4.57;2.93;;;9.00;29.40;;;;;;10505313;28;20307;-73
2021/04/13 20:19:25;;;;;;;3.50;3.20;;;9.00;29.40;;;;;;10508588;28;20234;-72
2021/04/13 20:24:33;;;;;;;3.50;3.20;;;9.00;29.30;;;;;;10503031;28;20295;-72
2021/04/13 20:29:42;;;;;;;2.80;2.60;;;9.00;29.40;;;;;;10489942;28;20236;-72
2021/04/13 20:34:59;;;;;;;3.43;2.77;;;9.00;29.40;;;;;;10490476;28;20605;-72
2021/04/13 20:40:11;;;;;;;3.40;2.77;;;9.00;29.40;;;;;;10491017;28;20299;-72
2021/04/13 20:45:15;;;;;;;2.33;2.13;;;9.00;29.50;;;;;;10501108;28;20310;-72
2021/04/13 20:50:23;;;;;;;2.67;2.43;;;8.90;29.50;;;;;;10497325;28;20248;-72
2021/04/13 20:55:30;;;;;;;2.63;2.43;;;8.90;29.30;;;;;;10509576;28;20224;-72
2021/04/13 21:00:37;;;;;;;2.80;2.60;;;8.80;29.40;;;;;;10499179;28;20314;-72
2021/04/13 21:05:46;;;;;;;2.53;2.37;;;8.80;29.40;;;;;;10504865;28;20356;-72
2021/04/13 21:10:53;;;;;;;3.70;3.03;;;8.80;29.40;;;;;;10512449;28;20244;-73
2021/04/13 21:15:59;;;;;;;4.00;3.20;;;8.70;29.40;;;;;;10505002;28;20235;-72
2021/04/13 21:21:07;;;;;;;3.23;2.93;;;8.60;29.10;;;;;;10504650;28;20271;-73
2021/04/13 21:26:14;;;;;;;2.97;2.73;;;8.40;29.20;;;;;;10501125;28;20247;-73
2021/04/13 21:31:22;;;;;;;2.73;2.53;;;8.30;29.30;;;;;;10505458;28;20226;-72
2021/04/13 21:36:33;;;;;;;3.10;2.80;;;8.20;29.30;;;;;;10506443;28;20293;-73
2021/04/13 21:41:41;;;;;;;2.87;2.57;;;8.00;29.50;;;;;;10505577;28;20243;-73
2021/04/13 21:46:48;;;;;;;2.97;2.70;;;8.00;29.60;;;;;;10504986;28;20277;-72
2021/04/13 21:51:55;;;;;;;3.30;3.00;;;7.90;29.40;;;;;;10507514;28;20276;-73
2021/04/13 21:57:02;;;;;;;3.80;3.40;;;7.80;29.40;;;;;;10504688;28;20227;-73
2021/04/13 22:02:07;;;;;;;3.27;3.00;;;7.60;29.50;;;;;;10490123;28;20783;-73
2021/04/13 22:07:16;;;;;;;3.90;3.50;;;7.50;29.50;;;;;;10489936;28;20231;-73
2021/04/13 22:12:21;;;;;;;3.87;3.07;;;7.30;29.70;;;;;;10484887;28;20756;-72
2021/04/13 22:17:29;;;;;;;2.87;2.57;;;7.20;29.70;;;;;;10494531;28;20311;-72
2021/04/13 22:22:37;;;;;;;4.40;2.77;;;7.10;30.00;;;;;;10487692;28;20295;-72
2021/04/13 22:27:46;;;;;;;3.97;3.67;;;7.00;30.00;;;;;;10497685;28;20223;-72
2021/04/13 22:32:56;;;;;;;4.07;3.73;;;7.00;30.20;;;;;;10495616;28;20305;-72
2021/04/13 22:38:03;;;;;;;4.30;3.37;;;6.80;30.20;;;;;;10507956;28;20286;-73
2021/04/13 22:43:06;;;;;;;4.07;3.73;;;6.80;30.30;;;;;;10491756;28;20311;-74
2021/04/13 22:48:09;;;;;;;3.40;3.10;;;6.80;30.30;;;;;;10494331;28;20323;-73
2021/04/13 22:53:18;;;;;;;4.30;3.73;;;6.70;30.40;;;;;;10496024;28;20232;-73
2021/04/13 22:58:26;;;;;;;3.50;3.27;;;6.60;30.70;;;;;;10510124;28;20784;-73
2021/04/13 23:03:29;;;;;;;3.40;3.10;;;6.60;30.60;;;;;;10495903;28;20748;-73
2021/04/13 23:08:31;;;;;;;6.00;3.50;;;6.60;30.60;;;;;;10505004;28;20315;-74
2021/04/13 23:13:34;;;;;;;3.93;3.63;;;6.60;30.60;;;;;;10507624;28;20656;-74
2021/04/13 23:18:37;;;;;;;3.43;3.13;;;6.60;30.70;;;;;;10492311;28;20240;-74
2021/04/13 23:23:39;;;;;;;4.10;3.63;;;6.50;30.60;;;;;;10491953;28;20247;-74
2021/04/13 23:28:41;;;;;;;3.67;3.37;;;6.40;30.60;;;;;;10489298;28;20608;-73
2021/04/13 23:33:44;;;;;;;3.37;3.17;;;6.40;30.60;;;;;;10492195;28;20223;-73
2021/04/13 23:38:47;;;;;;;3.40;3.13;;;6.30;30.80;;;;;;10494429;28;20331;-74
2021/04/13 23:43:49;;;;;;;3.77;3.47;;;6.30;30.80;;;;;;10489290;28;20307;-74
2021/04/13 23:48:52;;;;;;;3.27;3.07;;;6.30;30.90;;;;;;10490953;28;20703;-74
2021/04/13 23:53:54;;;;;;;3.80;3.50;;;6.30;30.90;;;;;;10485034;28;20655;-73
2021/04/13 23:58:57;;;;;;;3.70;3.40;;;6.30;30.90;;;;;;10493562;28;20311;-73
